createdAt,value
2022-11-10T15:00:51.418Z,67671.00
2022-11-10T15:03:17.786Z,67671.00
2022-11-10T15:06:32.931Z,102366.81
2022-11-10T15:08:39.921Z,102371.50
2022-11-10T15:10:48.381Z,102363.91
2022-11-10T15:13:02.820Z,102363.38
2022-11-10T15:15:20.363Z,102371.19
2022-11-10T15:17:47.550Z,102379.91
2022-11-10T15:19:28.286Z,102377.06
2022-11-10T15:21:06.294Z,102364.22
2022-11-10T15:22:44.341Z,102363.88
2022-11-10T15:24:26.771Z,102363.84
2022-11-10T15:26:06.368Z,102364.81
2022-11-10T15:27:58.513Z,102366.78
2022-11-10T15:29:34.057Z,102364.34
2022-11-10T15:31:23.835Z,102371.69
2022-11-10T15:33:02.423Z,102372.81
2022-11-10T15:34:43.596Z,102366.66
2022-11-10T15:36:30.267Z,102363.69
2022-11-10T15:38:24.978Z,102359.72
2022-11-10T15:40:32.697Z,102361.84
2022-11-10T15:42:15.592Z,102368.53
2022-11-10T15:43:54.695Z,102365.19
2022-11-10T15:45:30.395Z,102366.00
2022-11-10T15:47:11.174Z,102368.84
2022-11-10T15:48:52.728Z,102361.56
2022-11-10T15:50:30.851Z,102370.41
2022-11-10T15:52:15.321Z,102370.72
2022-11-10T15:53:51.815Z,102375.53
2022-11-10T15:55:30.846Z,102369.19
2022-11-10T15:57:12.113Z,102379.50
2022-11-10T15:58:51.072Z,102387.53
2022-11-10T16:00:28.148Z,102381.25
2022-11-10T16:02:16.052Z,102379.06
2022-11-10T16:03:58.103Z,102383.72
2022-11-10T16:05:38.641Z,102374.22
2022-11-10T16:06:59.480Z,102375.75
2022-11-10T16:08:35.153Z,102384.22
2022-11-10T16:10:11.556Z,102377.28
2022-11-10T16:11:47.078Z,102381.41
2022-11-10T16:13:26.474Z,102386.25
2022-11-10T16:15:03.696Z,102385.91
2022-11-10T16:16:40.442Z,102391.75
2022-11-10T16:18:20.344Z,102400.56
2022-11-10T16:19:56.882Z,102398.44
2022-11-10T16:21:37.850Z,102401.13
2022-11-10T16:23:14.042Z,102397.59
2022-11-10T16:24:49.753Z,102398.91
2022-11-10T16:26:26.605Z,102410.25
2022-11-10T16:28:04.548Z,102399.63
2022-11-10T16:29:41.465Z,102396.47
2022-11-10T16:31:22.732Z,102398.31
2022-11-10T16:32:58.266Z,102398.94
2022-11-10T16:34:33.790Z,102402.63
2022-11-10T16:36:23.269Z,102411.63
2022-11-10T16:37:58.406Z,102424.94
2022-11-10T16:39:34.518Z,102422.94
2022-11-10T16:41:16.468Z,102420.59
2022-11-10T16:42:52.813Z,102431.44
2022-11-10T16:44:30.999Z,102427.97
2022-11-10T16:46:19.444Z,102417.81
2022-11-10T16:47:54.695Z,102423.78
2022-11-10T16:49:34.815Z,102427.06
2022-11-10T16:51:16.749Z,102426.59
2022-11-10T16:52:52.883Z,102431.78
2022-11-10T16:54:28.475Z,102431.75
2022-11-10T16:56:04.689Z,102425.78
2022-11-10T16:57:40.269Z,102422.31
2022-11-10T16:59:15.822Z,102426.13
2022-11-10T17:00:53.484Z,102425.94
2022-11-10T17:02:34.550Z,102428.94
2022-11-10T17:04:15.635Z,102428.63
2022-11-10T17:05:56.742Z,102423.63
2022-11-10T17:07:34.286Z,102419.47
2022-11-10T17:09:16.319Z,102416.31
2022-11-10T17:10:54.072Z,102419.66
2022-11-10T17:12:28.923Z,102421.03
2022-11-10T17:14:04.827Z,102429.66
2022-11-10T17:15:40.055Z,102433.19
2022-11-10T17:17:18.289Z,102436.84
2022-11-10T17:18:53.605Z,102436.66
2022-11-10T17:20:34.630Z,102441.66
2022-11-10T17:22:12.244Z,102443.16
2022-11-10T17:23:48.761Z,102441.50
2022-11-10T17:25:27.356Z,102437.34
2022-11-10T17:27:02.214Z,102453.31
2022-11-10T17:28:37.179Z,102448.31
2022-11-10T17:30:13.137Z,102456.47
2022-11-10T17:31:48.504Z,102455.47
2022-11-10T17:33:24.289Z,102468.91
2022-11-10T17:34:58.951Z,102465.94
2022-11-10T17:36:35.212Z,102464.28
2022-11-10T17:38:15.117Z,102464.94
2022-11-10T17:39:51.647Z,102462.59
2022-11-10T17:41:33.580Z,102459.13
2022-11-10T17:43:11.377Z,102458.28
2022-11-10T17:44:47.367Z,102450.97
2022-11-10T17:46:22.667Z,102447.31
2022-11-10T17:47:57.646Z,102456.63
2022-11-10T17:49:33.744Z,102451.31
2022-11-10T17:51:18.995Z,102449.31
2022-11-10T17:52:54.319Z,102452.13
2022-11-10T17:54:29.606Z,102447.47
2022-11-10T17:56:06.939Z,102455.78
2022-11-10T17:57:42.191Z,102453.63
2022-11-10T17:59:17.298Z,102463.25
2022-11-10T18:00:55.083Z,102457.09
2022-11-10T18:02:30.119Z,102456.63
2022-11-10T18:04:13.328Z,102447.28
2022-11-10T18:05:53.996Z,102447.47
2022-11-10T18:07:29.157Z,102455.25
2022-11-10T18:09:05.471Z,102451.78
2022-11-10T18:10:42.114Z,102452.28
2022-11-10T18:12:20.902Z,102452.56
2022-11-10T18:14:00.998Z,102461.53
2022-11-10T18:15:42.490Z,102454.28
2022-11-10T18:17:18.919Z,102460.59
2022-11-10T18:18:54.492Z,102455.28
2022-11-10T18:20:30.773Z,102457.59
2022-11-10T18:22:07.283Z,102446.97
2022-11-10T18:23:43.586Z,102448.31
2022-11-10T18:25:19.866Z,102445.97
2022-11-10T18:26:55.087Z,102444.63
2022-11-10T18:28:35.929Z,102441.81
2022-11-10T18:30:14.861Z,102451.09
2022-11-10T18:31:53.709Z,102451.91
2022-11-10T18:33:28.763Z,102459.22
2022-11-10T18:35:05.124Z,102466.91
2022-11-10T18:36:41.472Z,102457.59
2022-11-10T18:38:17.338Z,102464.56
2022-11-10T18:39:52.359Z,102471.66
2022-11-10T18:41:33.132Z,102474.31
2022-11-10T18:43:08.847Z,102483.97
2022-11-10T18:44:45.713Z,102482.81
2022-11-10T18:46:21.087Z,102485.75
2022-11-10T18:48:01.823Z,102482.94
2022-11-10T18:49:36.720Z,102490.06
2022-11-10T18:51:17.728Z,102487.41
2022-11-10T18:52:53.122Z,102482.81
2022-11-10T18:54:28.050Z,102483.47
2022-11-10T18:56:04.001Z,102486.75
2022-11-10T18:57:39.768Z,102488.94
2022-11-10T18:59:15.198Z,102489.41
2022-11-10T19:01:01.012Z,102501.03
2022-11-10T19:02:35.743Z,102498.03
2022-11-10T19:04:16.372Z,102493.56
2022-11-10T19:05:58.820Z,102498.34
2022-11-10T19:07:34.176Z,102504.84
2022-11-10T19:09:11.704Z,102498.69
2022-11-10T19:10:46.158Z,102508.34
2022-11-10T19:12:26.271Z,102501.69
2022-11-10T19:14:02.214Z,102510.34
2022-11-10T19:15:40.606Z,102504.03
2022-11-10T19:17:17.328Z,102511.00
2022-11-10T19:18:52.108Z,102508.34
2022-11-10T19:20:27.540Z,102510.19
2022-11-10T19:22:02.382Z,102510.19
2022-11-10T19:23:37.403Z,102513.00
2022-11-10T19:25:12.584Z,102520.81
2022-11-10T19:26:49.713Z,102518.16
2022-11-10T19:28:25.540Z,102512.41
2022-11-10T19:30:00.979Z,102520.66
2022-11-10T19:31:36.827Z,102514.88
2022-11-10T19:33:13.922Z,102518.88
2022-11-10T19:34:48.423Z,102514.56
2022-11-10T19:36:25.573Z,102515.91
2022-11-10T19:38:00.728Z,102501.78
2022-11-10T19:39:36.219Z,102504.13
2022-11-10T19:41:20.422Z,102493.63
2022-11-10T19:42:55.967Z,102495.13
2022-11-10T19:44:31.339Z,102497.66
2022-11-10T19:46:10.167Z,102495.50
2022-11-10T19:47:45.114Z,102486.34
2022-11-10T19:49:22.344Z,102484.69
2022-11-10T19:50:59.122Z,102482.84
2022-11-10T19:52:34.507Z,102479.31
2022-11-10T19:54:10.641Z,102488.78
2022-11-10T19:55:45.872Z,102490.75
2022-11-10T19:57:22.070Z,102489.75
2022-11-10T19:58:56.978Z,102493.75
2022-11-10T20:00:32.435Z,102479.31
2022-11-10T20:02:12.270Z,102499.56
2022-11-10T20:03:54.437Z,102503.88
2022-11-10T20:05:36.823Z,102499.13
2022-11-10T20:07:20.144Z,102500.88
2022-11-10T20:08:55.385Z,102502.72
2022-11-10T20:10:31.282Z,102499.13
2022-11-10T20:12:07.209Z,102508.59
2022-11-10T20:13:43.731Z,102514.84
2022-11-10T20:15:19.386Z,102517.97
2022-11-10T20:16:54.475Z,102518.78
2022-11-10T20:18:29.542Z,102515.44
2022-11-10T20:20:06.606Z,102512.97
2022-11-10T20:21:43.542Z,102514.66
2022-11-10T20:23:20.089Z,102502.69
2022-11-10T20:24:55.927Z,102502.38
2022-11-10T20:26:33.959Z,102507.69
2022-11-10T20:28:12.170Z,102511.50
2022-11-10T20:29:47.505Z,102520.97
2022-11-10T20:31:29.718Z,102515.16
2022-11-10T20:33:06.136Z,102527.59
2022-11-10T20:34:41.995Z,102521.78
2022-11-10T20:36:21.639Z,102535.19
2022-11-10T20:37:58.151Z,102531.91
2022-11-10T20:39:33.683Z,102527.91
2022-11-10T20:41:18.586Z,102538.84
2022-11-10T20:42:54.348Z,102527.91
2022-11-10T20:44:31.538Z,102525.28
2022-11-10T20:46:16.152Z,102533.06
2022-11-10T20:48:00.791Z,102540.19
2022-11-10T20:49:36.346Z,102539.88
2022-11-10T20:51:20.223Z,102533.38
2022-11-10T20:52:56.915Z,102536.22
2022-11-10T20:54:32.559Z,102535.03
2022-11-10T20:56:09.915Z,102537.50
2022-11-10T20:57:46.229Z,102521.38
2022-11-10T20:59:21.493Z,102533.50
2022-11-10T21:01:01.991Z,102522.38
2022-11-10T21:02:37.801Z,102526.19
2022-11-10T21:04:18.507Z,102533.91
2022-11-10T21:06:00.262Z,102533.91
2022-11-10T21:07:39.203Z,102531.09
2022-11-10T21:09:16.631Z,102534.22
2022-11-10T21:10:53.536Z,102539.84
2022-11-10T21:12:30.867Z,102546.28
2022-11-10T21:14:06.129Z,102548.38
2022-11-10T21:15:41.519Z,102555.97
2022-11-10T21:17:17.511Z,102568.88
2022-11-10T21:18:56.009Z,102573.19
2022-11-10T21:20:33.083Z,102559.88
2022-11-10T21:22:08.570Z,102576.47
2022-11-10T21:23:44.591Z,102576.47
2022-11-10T21:25:22.126Z,102582.81
2022-11-10T21:26:58.397Z,102588.25
2022-11-10T21:28:33.732Z,102594.06
2022-11-10T21:30:14.164Z,102598.19
2022-11-10T21:31:51.042Z,102611.91
2022-11-10T21:33:30.697Z,102612.34
2022-11-10T21:35:07.794Z,102612.19
2022-11-10T21:36:43.600Z,102608.41
2022-11-10T21:38:18.809Z,102620.63
2022-11-10T21:39:58.388Z,102617.06
2022-11-10T21:41:39.180Z,102612.59
2022-11-10T21:43:15.089Z,102614.94
2022-11-10T21:44:50.434Z,102613.25
2022-11-10T21:46:25.762Z,102601.97
2022-11-10T21:48:02.237Z,102600.56
2022-11-10T21:49:37.837Z,102596.09
2022-11-10T21:51:18.636Z,102586.78
2022-11-10T21:52:54.064Z,102601.66
2022-11-10T21:54:29.530Z,102607.81
2022-11-10T21:56:07.742Z,102614.63
2022-11-10T21:57:44.332Z,102605.56
2022-11-10T21:59:20.084Z,102611.03
2022-11-10T22:01:01.073Z,102608.69
2022-11-10T22:02:35.755Z,102607.19
2022-11-10T22:04:16.224Z,102602.34
2022-11-10T22:06:03.233Z,102611.06
2022-11-10T22:07:39.060Z,102613.72
2022-11-10T22:09:14.387Z,102619.72
2022-11-10T22:10:50.126Z,102609.25
2022-11-10T22:12:25.809Z,102617.91
2022-11-10T22:14:03.239Z,102602.34
2022-11-10T22:15:40.626Z,102597.72
2022-11-10T22:17:16.346Z,102600.41
2022-11-10T22:18:51.454Z,102600.09
2022-11-10T22:20:26.263Z,102598.81
2022-11-10T22:22:03.892Z,102612.13
2022-11-10T22:23:39.782Z,102618.16
2022-11-10T22:25:15.391Z,102607.25
2022-11-10T22:26:52.662Z,102607.56
2022-11-10T22:28:27.696Z,102608.25
2022-11-10T22:30:05.313Z,102603.63
2022-11-10T22:31:40.909Z,102595.97
2022-11-10T22:33:15.501Z,102605.06
2022-11-10T22:34:50.976Z,102606.22
2022-11-10T22:36:26.011Z,102619.34
2022-11-10T22:38:05.057Z,102626.28
2022-11-10T22:39:40.530Z,102617.69
2022-11-10T22:41:20.956Z,102618.72
2022-11-10T22:42:56.259Z,102632.31
2022-11-10T22:44:31.154Z,102638.28
2022-11-10T22:46:08.460Z,102632.34
2022-11-10T22:47:44.116Z,102636.59
2022-11-10T22:49:21.852Z,102641.53
2022-11-10T22:50:58.032Z,102650.47
2022-11-10T22:52:36.109Z,102654.09
2022-11-10T22:54:17.381Z,102646.78
2022-11-10T22:55:52.404Z,102653.19
2022-11-10T22:57:27.478Z,102662.97
2022-11-10T22:59:04.355Z,102663.97
2022-11-10T23:00:39.600Z,102673.59
2022-11-10T23:02:21.671Z,102659.44
2022-11-10T23:04:02.703Z,102657.81
2022-11-10T23:05:43.141Z,102653.41
2022-11-10T23:07:18.640Z,102667.47
2022-11-10T23:08:54.451Z,102667.09
2022-11-10T23:10:30.563Z,102673.72
2022-11-10T23:12:06.151Z,102671.00
2022-11-10T23:13:43.894Z,102669.72
2022-11-10T23:15:19.644Z,102684.59
2022-11-10T23:16:54.997Z,102679.66
2022-11-10T23:18:31.962Z,102684.22
2022-11-10T23:20:09.178Z,102690.34
2022-11-10T23:21:46.052Z,102687.16
2022-11-10T23:23:21.756Z,102691.66
2022-11-10T23:24:57.772Z,102692.16
2022-11-10T23:26:32.759Z,102687.63
2022-11-10T23:28:09.423Z,102689.63
2022-11-10T23:29:44.977Z,102689.94
2022-11-10T23:31:27.041Z,102681.66
2022-11-10T23:33:02.399Z,102680.69
2022-11-10T23:34:39.771Z,102682.34
2022-11-10T23:36:17.953Z,102683.47
2022-11-10T23:37:53.267Z,102682.72
2022-11-10T23:39:28.415Z,102673.53
2022-11-10T23:41:06.015Z,102679.38
2022-11-10T23:42:41.647Z,102673.41
2022-11-10T23:44:18.598Z,102683.41
2022-11-10T23:46:06.317Z,102684.34
2022-11-10T23:47:42.822Z,102680.06
2022-11-10T23:49:19.619Z,102687.47
2022-11-10T23:50:56.465Z,102688.50
2022-11-10T23:52:32.698Z,102687.81
2022-11-10T23:54:08.146Z,102686.53
2022-11-10T23:55:43.242Z,102696.94
2022-11-10T23:57:18.543Z,102685.38
2022-11-10T23:58:54.140Z,102689.00
